sensor_id;sensor_type;location;lat;lon;timestamp;temperature;humidity
74968;SHT30;63523;51.880;12.630;2023-03-05T00:01:36;3.90;63.35
74968;SHT30;63523;51.880;12.630;2023-03-05T00:04:03;3.80;63.23
74968;SHT30;63523;51.880;12.630;2023-03-05T00:06:31;3.85;63.21
74968;SHT30;63523;51.880;12.630;2023-03-05T00:08:57;3.70;63.45
74968;SHT30;63523;51.880;12.630;2023-03-05T00:11:25;3.82;63.11
74968;SHT30;63523;51.880;12.630;2023-03-05T00:13:52;3.70;63.58
74968;SHT30;63523;51.880;12.630;2023-03-05T00:16:17;3.66;63.73
74968;SHT30;63523;51.880;12.630;2023-03-05T00:18:44;3.55;63.91
74968;SHT30;63523;51.880;12.630;2023-03-05T00:21:33;3.68;63.49
74968;SHT30;63523;51.880;12.630;2023-03-05T00:24:00;3.58;63.37
74968;SHT30;63523;51.880;12.630;2023-03-05T00:26:26;3.50;64.08
74968;SHT30;63523;51.880;12.630;2023-03-05T00:28:54;3.69;62.57
74968;SHT30;63523;51.880;12.630;2023-03-05T00:31:22;3.61;62.86
74968;SHT30;63523;51.880;12.630;2023-03-05T00:33:52;3.46;64.13
74968;SHT30;63523;51.880;12.630;2023-03-05T00:36:18;3.56;62.46
74968;SHT30;63523;51.880;12.630;2023-03-05T00:38:44;3.46;63.08
74968;SHT30;63523;51.880;12.630;2023-03-05T00:41:09;3.45;63.30
74968;SHT30;63523;51.880;12.630;2023-03-05T00:43:35;3.45;63.31
74968;SHT30;63523;51.880;12.630;2023-03-05T00:46:00;3.27;63.45
74968;SHT30;63523;51.880;12.630;2023-03-05T00:48:26;3.24;63.47
74968;SHT30;63523;51.880;12.630;2023-03-05T00:50:51;3.31;63.53
74968;SHT30;63523;51.880;12.630;2023-03-05T00:53:17;3.45;62.10
74968;SHT30;63523;51.880;12.630;2023-03-05T00:55:43;3.39;62.71
74968;SHT30;63523;51.880;12.630;2023-03-05T00:58:09;3.32;62.93
74968;SHT30;63523;51.880;12.630;2023-03-05T01:00:35;3.15;63.79
74968;SHT30;63523;51.880;12.630;2023-03-05T01:03:00;3.30;62.26
74968;SHT30;63523;51.880;12.630;2023-03-05T01:05:26;3.34;62.08
74968;SHT30;63523;51.880;12.630;2023-03-05T01:07:52;3.20;62.74
74968;SHT30;63523;51.880;12.630;2023-03-05T01:10:18;3.27;61.92
74968;SHT30;63523;51.880;12.630;2023-03-05T01:12:44;3.04;63.11
74968;SHT30;63523;51.880;12.630;2023-03-05T01:15:10;2.99;63.29
74968;SHT30;63523;51.880;12.630;2023-03-05T01:17:36;2.83;64.17
74968;SHT30;63523;51.880;12.630;2023-03-05T01:20:03;2.75;64.25
74968;SHT30;63523;51.880;12.630;2023-03-05T01:22:29;2.79;63.90
74968;SHT30;63523;51.880;12.630;2023-03-05T01:24:55;2.63;64.15
74968;SHT30;63523;51.880;12.630;2023-03-05T01:27:20;2.73;63.46
74968;SHT30;63523;51.880;12.630;2023-03-05T01:29:46;2.66;63.53
74968;SHT30;63523;51.880;12.630;2023-03-05T01:32:11;2.55;64.14
74968;SHT30;63523;51.880;12.630;2023-03-05T01:34:37;2.46;64.91
74968;SHT30;63523;51.880;12.630;2023-03-05T01:37:02;2.51;64.03
74968;SHT30;63523;51.880;12.630;2023-03-05T01:39:28;2.53;64.01
74968;SHT30;63523;51.880;12.630;2023-03-05T01:41:53;2.62;63.18
74968;SHT30;63523;51.880;12.630;2023-03-05T01:44:25;2.56;64.03
74968;SHT30;63523;51.880;12.630;2023-03-05T01:46:51;2.49;64.06
74968;SHT30;63523;51.880;12.630;2023-03-05T01:49:22;2.49;64.64
74968;SHT30;63523;51.880;12.630;2023-03-05T01:52:12;2.75;62.42
74968;SHT30;63523;51.880;12.630;2023-03-05T01:55:07;2.56;63.96
74968;SHT30;63523;51.880;12.630;2023-03-05T01:57:37;2.55;63.51
74968;SHT30;63523;51.880;12.630;2023-03-05T02:00:19;2.56;63.78
74968;SHT30;63523;51.880;12.630;2023-03-05T02:02:48;2.58;63.04
74968;SHT30;63523;51.880;12.630;2023-03-05T02:05:33;2.72;62.26
74968;SHT30;63523;51.880;12.630;2023-03-05T02:08:02;2.80;62.39
74968;SHT30;63523;51.880;12.630;2023-03-05T02:10:30;2.90;61.73
74968;SHT30;63523;51.880;12.630;2023-03-05T02:12:59;2.82;62.69
74968;SHT30;63523;51.880;12.630;2023-03-05T02:15:26;2.85;62.07
74968;SHT30;63523;51.880;12.630;2023-03-05T02:17:52;2.95;61.68
74968;SHT30;63523;51.880;12.630;2023-03-05T02:20:21;2.87;62.60
74968;SHT30;63523;51.880;12.630;2023-03-05T02:22:47;2.85;62.51
74968;SHT30;63523;51.880;12.630;2023-03-05T02:30:34;2.85;62.90
74968;SHT30;63523;51.880;12.630;2023-03-05T02:33:00;2.85;63.01
74968;SHT30;63523;51.880;12.630;2023-03-05T02:35:26;2.76;63.18
74968;SHT30;63523;51.880;12.630;2023-03-05T02:37:51;2.85;63.33
74968;SHT30;63523;51.880;12.630;2023-03-05T02:40:17;2.93;62.82
74968;SHT30;63523;51.880;12.630;2023-03-05T02:42:43;2.90;63.82
74968;SHT30;63523;51.880;12.630;2023-03-05T02:45:10;2.90;64.05
74968;SHT30;63523;51.880;12.630;2023-03-05T02:47:36;2.92;64.31
74968;SHT30;63523;51.880;12.630;2023-03-05T02:50:02;2.95;64.55
74968;SHT30;63523;51.880;12.630;2023-03-05T02:52:28;2.95;64.53
74968;SHT30;63523;51.880;12.630;2023-03-05T02:54:54;3.04;64.56
74968;SHT30;63523;51.880;12.630;2023-03-05T02:57:20;2.95;65.45
74968;SHT30;63523;51.880;12.630;2023-03-05T02:59:45;2.97;65.59
74968;SHT30;63523;51.880;12.630;2023-03-05T03:02:11;3.00;65.91
74968;SHT30;63523;51.880;12.630;2023-03-05T03:04:37;3.07;65.41
74968;SHT30;63523;51.880;12.630;2023-03-05T03:07:03;3.11;65.47
74968;SHT30;63523;51.880;12.630;2023-03-05T03:09:29;3.13;65.83
74968;SHT30;63523;51.880;12.630;2023-03-05T03:11:54;3.15;66.59
74968;SHT30;63523;51.880;12.630;2023-03-05T03:14:20;3.03;67.51
74968;SHT30;63523;51.880;12.630;2023-03-05T03:16:46;3.06;68.21
74968;SHT30;63523;51.880;12.630;2023-03-05T03:19:12;3.07;68.41
74968;SHT30;63523;51.880;12.630;2023-03-05T03:21:37;3.03;69.17
74968;SHT30;63523;51.880;12.630;2023-03-05T03:24:03;2.95;70.27
74968;SHT30;63523;51.880;12.630;2023-03-05T03:26:29;2.92;70.62
74968;SHT30;63523;51.880;12.630;2023-03-05T03:28:56;3.00;70.87
74968;SHT30;63523;51.880;12.630;2023-03-05T03:31:21;3.04;71.13
74968;SHT30;63523;51.880;12.630;2023-03-05T03:33:47;3.04;71.44
74968;SHT30;63523;51.880;12.630;2023-03-05T03:36:13;3.00;72.28
74968;SHT30;63523;51.880;12.630;2023-03-05T03:38:38;2.93;72.69
74968;SHT30;63523;51.880;12.630;2023-03-05T03:41:05;2.80;73.29
74968;SHT30;63523;51.880;12.630;2023-03-05T03:43:33;2.78;74.10
74968;SHT30;63523;51.880;12.630;2023-03-05T03:45:58;2.68;74.91
74968;SHT30;63523;51.880;12.630;2023-03-05T03:48:23;2.52;75.67
74968;SHT30;63523;51.880;12.630;2023-03-05T03:50:49;2.56;75.87
74968;SHT30;63523;51.880;12.630;2023-03-05T03:53:14;2.51;76.02
74968;SHT30;63523;51.880;12.630;2023-03-05T03:55:42;2.45;76.32
74968;SHT30;63523;51.880;12.630;2023-03-05T03:58:09;2.42;76.56
74968;SHT30;63523;51.880;12.630;2023-03-05T04:00:35;2.41;77.28
74968;SHT30;63523;51.880;12.630;2023-03-05T04:03:00;2.41;77.10
74968;SHT30;63523;51.880;12.630;2023-03-05T04:05:26;2.30;77.76
74968;SHT30;63523;51.880;12.630;2023-03-05T04:07:51;2.23;78.49
74968;SHT30;63523;51.880;12.630;2023-03-05T04:10:17;2.30;78.45
74968;SHT30;63523;51.880;12.630;2023-03-05T04:12:43;2.34;77.99
74968;SHT30;63523;51.880;12.630;2023-03-05T04:15:10;2.28;78.40
74968;SHT30;63523;51.880;12.630;2023-03-05T04:17:36;2.24;78.69
74968;SHT30;63523;51.880;12.630;2023-03-05T04:20:02;2.21;79.15
74968;SHT30;63523;51.880;12.630;2023-03-05T04:22:29;2.27;79.00
74968;SHT30;63523;51.880;12.630;2023-03-05T04:24:54;2.33;78.80
74968;SHT30;63523;51.880;12.630;2023-03-05T04:27:20;2.23;79.61
74968;SHT30;63523;51.880;12.630;2023-03-05T04:29:45;2.16;79.99
74968;SHT30;63523;51.880;12.630;2023-03-05T04:32:11;2.16;80.05
74968;SHT30;63523;51.880;12.630;2023-03-05T04:34:37;2.23;79.98
74968;SHT30;63523;51.880;12.630;2023-03-05T04:37:02;2.25;79.94
74968;SHT30;63523;51.880;12.630;2023-03-05T04:39:28;2.33;79.59
74968;SHT30;63523;51.880;12.630;2023-03-05T04:41:54;2.46;78.77
74968;SHT30;63523;51.880;12.630;2023-03-05T04:44:19;2.51;78.34
74968;SHT30;63523;51.880;12.630;2023-03-05T04:46:48;2.44;78.52
74968;SHT30;63523;51.880;12.630;2023-03-05T04:49:13;2.51;78.30
74968;SHT30;63523;51.880;12.630;2023-03-05T04:51:40;2.52;78.12
74968;SHT30;63523;51.880;12.630;2023-03-05T04:54:06;2.59;77.80
74968;SHT30;63523;51.880;12.630;2023-03-05T04:56:31;2.66;77.56
74968;SHT30;63523;51.880;12.630;2023-03-05T04:58:57;2.63;77.59
74968;SHT30;63523;51.880;12.630;2023-03-05T05:01:23;2.73;77.42
74968;SHT30;63523;51.880;12.630;2023-03-05T05:03:48;2.71;77.69
74968;SHT30;63523;51.880;12.630;2023-03-05T05:06:14;2.68;77.97
74968;SHT30;63523;51.880;12.630;2023-03-05T05:08:39;2.69;78.24
74968;SHT30;63523;51.880;12.630;2023-03-05T05:11:06;2.65;79.06
74968;SHT30;63523;51.880;12.630;2023-03-05T05:13:33;2.62;79.92
74968;SHT30;63523;51.880;12.630;2023-03-05T05:15:59;2.51;80.83
74968;SHT30;63523;51.880;12.630;2023-03-05T05:18:25;2.40;81.78
74968;SHT30;63523;51.880;12.630;2023-03-05T05:20:51;2.27;82.57
74968;SHT30;63523;51.880;12.630;2023-03-05T05:23:17;2.20;83.79
74968;SHT30;63523;51.880;12.630;2023-03-05T05:25:42;2.38;83.06
74968;SHT30;63523;51.880;12.630;2023-03-05T05:28:09;2.27;82.81
74968;SHT30;63523;51.880;12.630;2023-03-05T05:30:35;2.11;84.19
74968;SHT30;63523;51.880;12.630;2023-03-05T05:33:01;2.04;84.72
74968;SHT30;63523;51.880;12.630;2023-03-05T05:35:26;2.03;84.99
74968;SHT30;63523;51.880;12.630;2023-03-05T05:37:52;2.03;85.25
74968;SHT30;63523;51.880;12.630;2023-03-05T05:40:17;1.97;85.72
74968;SHT30;63523;51.880;12.630;2023-03-05T05:42:43;1.95;85.57
74968;SHT30;63523;51.880;12.630;2023-03-05T05:45:10;1.90;85.97
74968;SHT30;63523;51.880;12.630;2023-03-05T05:47:36;1.92;85.95
74968;SHT30;63523;51.880;12.630;2023-03-05T05:50:03;1.89;86.04
74968;SHT30;63523;51.880;12.630;2023-03-05T05:52:28;1.96;86.01
74968;SHT30;63523;51.880;12.630;2023-03-05T05:54:54;1.99;85.72
74968;SHT30;63523;51.880;12.630;2023-03-05T05:57:19;1.96;85.66
74968;SHT30;63523;51.880;12.630;2023-03-05T05:59:45;2.06;85.59
74968;SHT30;63523;51.880;12.630;2023-03-05T06:02:10;2.00;85.31
74968;SHT30;63523;51.880;12.630;2023-03-05T06:04:36;1.97;85.71
74968;SHT30;63523;51.880;12.630;2023-03-05T06:07:02;1.93;86.36
74968;SHT30;63523;51.880;12.630;2023-03-05T06:09:28;1.97;86.29
74968;SHT30;63523;51.880;12.630;2023-03-05T06:11:54;1.99;86.57
74968;SHT30;63523;51.880;12.630;2023-03-05T06:14:19;2.06;86.31
74968;SHT30;63523;51.880;12.630;2023-03-05T06:16:45;2.07;86.63
74968;SHT30;63523;51.880;12.630;2023-03-05T06:19:11;2.16;86.75
74968;SHT30;63523;51.880;12.630;2023-03-05T06:21:38;2.30;85.31
74968;SHT30;63523;51.880;12.630;2023-03-05T06:24:04;2.27;85.78
74968;SHT30;63523;51.880;12.630;2023-03-05T06:26:30;2.25;85.97
74968;SHT30;63523;51.880;12.630;2023-03-05T06:28:55;2.33;85.69
74968;SHT30;63523;51.880;12.630;2023-03-05T06:31:24;2.34;85.51
74968;SHT30;63523;51.880;12.630;2023-03-05T06:33:51;2.38;85.61
74968;SHT30;63523;51.880;12.630;2023-03-05T06:36:19;2.49;85.13
74968;SHT30;63523;51.880;12.630;2023-03-05T06:38:45;2.51;85.08
74968;SHT30;63523;51.880;12.630;2023-03-05T06:41:16;2.56;84.60
74968;SHT30;63523;51.880;12.630;2023-03-05T06:43:43;2.58;84.80
74968;SHT30;63523;51.880;12.630;2023-03-05T06:46:16;2.46;85.35
74968;SHT30;63523;51.880;12.630;2023-03-05T06:48:43;2.53;84.65
74968;SHT30;63523;51.880;12.630;2023-03-05T06:51:14;2.55;84.70
74968;SHT30;63523;51.880;12.630;2023-03-05T06:53:41;2.52;85.34
74968;SHT30;63523;51.880;12.630;2023-03-05T06:56:07;2.58;85.31
74968;SHT30;63523;51.880;12.630;2023-03-05T06:58:32;2.59;84.86
74968;SHT30;63523;51.880;12.630;2023-03-05T07:00:58;2.76;84.19
74968;SHT30;63523;51.880;12.630;2023-03-05T07:03:23;2.89;83.26
74968;SHT30;63523;51.880;12.630;2023-03-05T07:05:49;2.85;83.82
74968;SHT30;63523;51.880;12.630;2023-03-05T07:08:14;2.86;83.56
74968;SHT30;63523;51.880;12.630;2023-03-05T07:10:42;3.14;82.14
74968;SHT30;63523;51.880;12.630;2023-03-05T07:13:09;3.17;81.37
74968;SHT30;63523;51.880;12.630;2023-03-05T07:15:37;3.11;81.78
74968;SHT30;63523;51.880;12.630;2023-03-05T07:18:03;2.93;82.53
74968;SHT30;63523;51.880;12.630;2023-03-05T07:20:29;3.10;81.73
74968;SHT30;63523;51.880;12.630;2023-03-05T07:22:54;3.03;82.30
74968;SHT30;63523;51.880;12.630;2023-03-05T07:25:20;3.01;82.35
74968;SHT30;63523;51.880;12.630;2023-03-05T07:27:46;3.21;80.63
74968;SHT30;63523;51.880;12.630;2023-03-05T07:30:13;3.35;79.53
74968;SHT30;63523;51.880;12.630;2023-03-05T07:32:38;3.25;80.26
74968;SHT30;63523;51.880;12.630;2023-03-05T07:35:05;3.36;80.09
74968;SHT30;63523;51.880;12.630;2023-03-05T07:37:30;3.62;78.60
74968;SHT30;63523;51.880;12.630;2023-03-05T07:39:56;3.70;78.10
74968;SHT30;63523;51.880;12.630;2023-03-05T07:42:22;3.72;77.76
74968;SHT30;63523;51.880;12.630;2023-03-05T07:44:47;3.65;77.76
74968;SHT30;63523;51.880;12.630;2023-03-05T07:47:14;3.73;77.11
74968;SHT30;63523;51.880;12.630;2023-03-05T07:49:39;3.56;78.41
74968;SHT30;63523;51.880;12.630;2023-03-05T07:52:07;3.48;79.04
74968;SHT30;63523;51.880;12.630;2023-03-05T07:54:33;3.59;79.06
74968;SHT30;63523;51.880;12.630;2023-03-05T07:57:03;3.68;78.00
74968;SHT30;63523;51.880;12.630;2023-03-05T07:59:29;3.68;78.53
74968;SHT30;63523;51.880;12.630;2023-03-05T08:01:54;4.03;76.52
74968;SHT30;63523;51.880;12.630;2023-03-05T08:04:20;4.11;76.26
74968;SHT30;63523;51.880;12.630;2023-03-05T08:06:45;4.25;75.26
74968;SHT30;63523;51.880;12.630;2023-03-05T08:09:11;4.15;75.38
74968;SHT30;63523;51.880;12.630;2023-03-05T08:11:38;4.22;74.70
74968;SHT30;63523;51.880;12.630;2023-03-05T08:14:04;4.40;73.99
74968;SHT30;63523;51.880;12.630;2023-03-05T08:16:29;4.37;72.71
74968;SHT30;63523;51.880;12.630;2023-03-05T08:18:56;4.37;73.52
74968;SHT30;63523;51.880;12.630;2023-03-05T08:21:27;4.40;72.98
74968;SHT30;63523;51.880;12.630;2023-03-05T08:23:55;4.31;73.52
74968;SHT30;63523;51.880;12.630;2023-03-05T08:26:23;4.18;73.38
74968;SHT30;63523;51.880;12.630;2023-03-05T08:28:49;4.22;72.99
74968;SHT30;63523;51.880;12.630;2023-03-05T08:31:17;4.14;73.73
74968;SHT30;63523;51.880;12.630;2023-03-05T08:33:43;4.07;73.23
74968;SHT30;63523;51.880;12.630;2023-03-05T08:36:09;3.80;75.56
74968;SHT30;63523;51.880;12.630;2023-03-05T08:38:35;3.86;74.78
74968;SHT30;63523;51.880;12.630;2023-03-05T08:41:01;4.11;73.78
74968;SHT30;63523;51.880;12.630;2023-03-05T08:43:27;4.17;73.66
74968;SHT30;63523;51.880;12.630;2023-03-05T08:45:52;4.10;74.50
74968;SHT30;63523;51.880;12.630;2023-03-05T08:48:19;4.06;74.83
74968;SHT30;63523;51.880;12.630;2023-03-05T08:50:44;4.06;76.56
74968;SHT30;63523;51.880;12.630;2023-03-05T08:53:10;4.18;76.13
74968;SHT30;63523;51.880;12.630;2023-03-05T08:55:36;4.28;75.96
74968;SHT30;63523;51.880;12.630;2023-03-05T08:58:02;4.49;74.45
74968;SHT30;63523;51.880;12.630;2023-03-05T09:00:28;4.69;74.12
74968;SHT30;63523;51.880;12.630;2023-03-05T09:02:53;4.87;72.09
74968;SHT30;63523;51.880;12.630;2023-03-05T09:05:19;4.84;71.82
74968;SHT30;63523;51.880;12.630;2023-03-05T09:07:47;4.80;73.14
74968;SHT30;63523;51.880;12.630;2023-03-05T09:10:13;4.84;72.34
74968;SHT30;63523;51.880;12.630;2023-03-05T09:12:42;4.93;72.98
74968;SHT30;63523;51.880;12.630;2023-03-05T09:15:09;4.96;71.94
74968;SHT30;63523;51.880;12.630;2023-03-05T09:17:38;4.70;73.50
74968;SHT30;63523;51.880;12.630;2023-03-05T09:20:06;4.49;74.82
74968;SHT30;63523;51.880;12.630;2023-03-05T09:22:31;4.30;76.14
74968;SHT30;63523;51.880;12.630;2023-03-05T09:24:57;4.18;77.49
74968;SHT30;63523;51.880;12.630;2023-03-05T09:27:23;4.14;77.64
74968;SHT30;63523;51.880;12.630;2023-03-05T09:29:48;4.15;77.81
74968;SHT30;63523;51.880;12.630;2023-03-05T09:32:14;4.17;78.12
74968;SHT30;63523;51.880;12.630;2023-03-05T09:34:40;4.28;78.17
74968;SHT30;63523;51.880;12.630;2023-03-05T09:37:05;4.48;77.48
74968;SHT30;63523;51.880;12.630;2023-03-05T09:39:32;4.51;77.25
74968;SHT30;63523;51.880;12.630;2023-03-05T09:45:11;4.59;76.20
74968;SHT30;63523;51.880;12.630;2023-03-05T09:50:37;4.49;75.26
74968;SHT30;63523;51.880;12.630;2023-03-05T09:53:11;4.55;75.91
74968;SHT30;63523;51.880;12.630;2023-03-05T09:55:43;4.52;76.83
74968;SHT30;63523;51.880;12.630;2023-03-05T10:00:39;4.30;77.11
74968;SHT30;63523;51.880;12.630;2023-03-05T10:03:12;4.38;76.91
74968;SHT30;63523;51.880;12.630;2023-03-05T10:08:22;4.31;77.35
74968;SHT30;63523;51.880;12.630;2023-03-05T10:10:52;4.27;78.12
74968;SHT30;63523;51.880;12.630;2023-03-05T10:13:23;4.22;79.10
74968;SHT30;63523;51.880;12.630;2023-03-05T10:22:13;4.06;78.59
74968;SHT30;63523;51.880;12.630;2023-03-05T10:24:59;4.04;79.35
74968;SHT30;63523;51.880;12.630;2023-03-05T10:27:48;4.42;76.95
74968;SHT30;63523;51.880;12.630;2023-03-05T10:35:50;4.24;76.64
74968;SHT30;63523;51.880;12.630;2023-03-05T10:38:49;4.06;77.84
74968;SHT30;63523;51.880;12.630;2023-03-05T10:41:56;4.08;78.50
74968;SHT30;63523;51.880;12.630;2023-03-05T10:47:14;4.22;77.92
74968;SHT30;63523;51.880;12.630;2023-03-05T10:49:48;4.32;78.05
74968;SHT30;63523;51.880;12.630;2023-03-05T10:52:39;4.35;78.23
74968;SHT30;63523;51.880;12.630;2023-03-05T10:55:17;4.40;77.39
74968;SHT30;63523;51.880;12.630;2023-03-05T10:57:43;4.61;78.32
74968;SHT30;63523;51.880;12.630;2023-03-05T11:03:02;4.68;74.68
74968;SHT30;63523;51.880;12.630;2023-03-05T11:08:31;4.68;76.74
74968;SHT30;63523;51.880;12.630;2023-03-05T11:11:16;4.80;74.36
74968;SHT30;63523;51.880;12.630;2023-03-05T11:13:53;4.81;74.15
74968;SHT30;63523;51.880;12.630;2023-03-05T11:16:27;4.90;73.98
74968;SHT30;63523;51.880;12.630;2023-03-05T11:19:19;4.68;75.63
74968;SHT30;63523;51.880;12.630;2023-03-05T11:22:03;4.72;74.80
74968;SHT30;63523;51.880;12.630;2023-03-05T11:24:29;4.80;74.27
74968;SHT30;63523;51.880;12.630;2023-03-05T11:26:56;4.48;75.54
74968;SHT30;63523;51.880;12.630;2023-03-05T11:29:30;4.40;76.57
74968;SHT30;63523;51.880;12.630;2023-03-05T11:32:15;4.34;77.21
74968;SHT30;63523;51.880;12.630;2023-03-05T11:34:40;4.42;79.82
74968;SHT30;63523;51.880;12.630;2023-03-05T11:37:06;4.58;77.46
74968;SHT30;63523;51.880;12.630;2023-03-05T11:39:44;4.68;77.67
74968;SHT30;63523;51.880;12.630;2023-03-05T11:42:16;4.83;77.80
74968;SHT30;63523;51.880;12.630;2023-03-05T11:44:51;4.96;78.10
74968;SHT30;63523;51.880;12.630;2023-03-05T11:47:28;5.15;78.19
74968;SHT30;63523;51.880;12.630;2023-03-05T11:53:01;5.28;75.24
74968;SHT30;63523;51.880;12.630;2023-03-05T11:58:23;5.21;76.44
74968;SHT30;63523;51.880;12.630;2023-03-05T12:00:50;5.24;75.62
74968;SHT30;63523;51.880;12.630;2023-03-05T12:03:20;5.45;72.80
74968;SHT30;63523;51.880;12.630;2023-03-05T12:05:50;5.34;73.09
74968;SHT30;63523;51.880;12.630;2023-03-05T12:08:21;5.28;74.49
74968;SHT30;63523;51.880;12.630;2023-03-05T12:10:50;5.24;74.15
74968;SHT30;63523;51.880;12.630;2023-03-05T12:13:37;5.23;73.57
74968;SHT30;63523;51.880;12.630;2023-03-05T12:19:23;5.43;73.24
74968;SHT30;63523;51.880;12.630;2023-03-05T12:21:51;5.48;74.68
74968;SHT30;63523;51.880;12.630;2023-03-05T12:31:58;5.60;69.29
74968;SHT30;63523;51.880;12.630;2023-03-05T12:47:40;5.42;70.21
74968;SHT30;63523;51.880;12.630;2023-03-05T12:53:14;5.69;68.20
74968;SHT30;63523;51.880;12.630;2023-03-05T13:03:28;5.31;68.94
74968;SHT30;63523;51.880;12.630;2023-03-05T13:05:57;5.18;68.37
74968;SHT30;63523;51.880;12.630;2023-03-05T13:08:29;5.06;70.48
74968;SHT30;63523;51.880;12.630;2023-03-05T13:11:07;5.06;71.70
74968;SHT30;63523;51.880;12.630;2023-03-05T13:13:41;5.24;70.55
74968;SHT30;63523;51.880;12.630;2023-03-05T13:16:26;5.52;66.90
74968;SHT30;63523;51.880;12.630;2023-03-05T13:18:54;5.79;66.68
74968;SHT30;63523;51.880;12.630;2023-03-05T13:21:25;5.94;67.44
74968;SHT30;63523;51.880;12.630;2023-03-05T13:23:56;6.25;64.63
74968;SHT30;63523;51.880;12.630;2023-03-05T13:26:37;6.18;65.76
74968;SHT30;63523;51.880;12.630;2023-03-05T13:31:53;5.81;65.53
74968;SHT30;63523;51.880;12.630;2023-03-05T13:34:33;4.70;70.65
74968;SHT30;63523;51.880;12.630;2023-03-05T13:37:21;4.03;74.81
74968;SHT30;63523;51.880;12.630;2023-03-05T13:39:56;3.85;74.92
74968;SHT30;63523;51.880;12.630;2023-03-05T13:42:30;4.04;76.19
74968;SHT30;63523;51.880;12.630;2023-03-05T13:45:29;4.00;77.20
74968;SHT30;63523;51.880;12.630;2023-03-05T13:48:05;4.04;77.46
74968;SHT30;63523;51.880;12.630;2023-03-05T13:50:36;4.14;77.01
74968;SHT30;63523;51.880;12.630;2023-03-05T13:53:33;4.07;76.82
74968;SHT30;63523;51.880;12.630;2023-03-05T13:56:04;4.22;74.14
74968;SHT30;63523;51.880;12.630;2023-03-05T13:58:41;4.37;73.82
74968;SHT30;63523;51.880;12.630;2023-03-05T14:03:43;4.61;73.20
74968;SHT30;63523;51.880;12.630;2023-03-05T14:06:17;4.77;68.01
74968;SHT30;63523;51.880;12.630;2023-03-05T14:08:49;4.87;67.83
74968;SHT30;63523;51.880;12.630;2023-03-05T14:11:16;4.98;66.12
74968;SHT30;63523;51.880;12.630;2023-03-05T14:13:42;4.96;67.91
74968;SHT30;63523;51.880;12.630;2023-03-05T14:16:09;5.00;68.66
74968;SHT30;63523;51.880;12.630;2023-03-05T14:18:34;5.15;68.19
74968;SHT30;63523;51.880;12.630;2023-03-05T14:23:41;5.42;66.26
74968;SHT30;63523;51.880;12.630;2023-03-05T14:29:12;5.48;67.49
74968;SHT30;63523;51.880;12.630;2023-03-05T14:31:57;5.48;66.22
74968;SHT30;63523;51.880;12.630;2023-03-05T14:34:28;5.53;65.89
74968;SHT30;63523;51.880;12.630;2023-03-05T14:37:00;5.56;65.16
74968;SHT30;63523;51.880;12.630;2023-03-05T14:41:55;5.67;64.89
74968;SHT30;63523;51.880;12.630;2023-03-05T14:44:36;5.45;65.80
74968;SHT30;63523;51.880;12.630;2023-03-05T14:47:01;5.53;64.60
74968;SHT30;63523;51.880;12.630;2023-03-05T14:49:27;5.56;64.28
74968;SHT30;63523;51.880;12.630;2023-03-05T14:51:52;5.35;65.21
74968;SHT30;63523;51.880;12.630;2023-03-05T14:54:20;5.36;65.03
74968;SHT30;63523;51.880;12.630;2023-03-05T14:56:47;5.17;65.75
74968;SHT30;63523;51.880;12.630;2023-03-05T14:59:14;5.13;66.64
74968;SHT30;63523;51.880;12.630;2023-03-05T15:01:40;5.08;68.11
74968;SHT30;63523;51.880;12.630;2023-03-05T15:04:05;5.01;68.42
74968;SHT30;63523;51.880;12.630;2023-03-05T15:06:33;5.00;68.98
74968;SHT30;63523;51.880;12.630;2023-03-05T15:09:01;5.00;68.95
74968;SHT30;63523;51.880;12.630;2023-03-05T15:11:28;4.97;68.90
74968;SHT30;63523;51.880;12.630;2023-03-05T15:13:54;4.98;68.12
74968;SHT30;63523;51.880;12.630;2023-03-05T15:16:20;5.06;68.53
74968;SHT30;63523;51.880;12.630;2023-03-05T15:18:46;5.20;66.78
74968;SHT30;63523;51.880;12.630;2023-03-05T15:21:12;5.20;67.31
74968;SHT30;63523;51.880;12.630;2023-03-05T15:23:38;5.41;65.66
74968;SHT30;63523;51.880;12.630;2023-03-05T15:26:05;5.20;67.23
74968;SHT30;63523;51.880;12.630;2023-03-05T15:28:33;4.96;69.54
74968;SHT30;63523;51.880;12.630;2023-03-05T15:30:59;4.75;71.94
74968;SHT30;63523;51.880;12.630;2023-03-05T15:33:25;4.55;72.42
74968;SHT30;63523;51.880;12.630;2023-03-05T15:35:52;4.51;72.40
74968;SHT30;63523;51.880;12.630;2023-03-05T15:38:17;4.24;73.33
74968;SHT30;63523;51.880;12.630;2023-03-05T15:40:43;4.27;73.17
74968;SHT30;63523;51.880;12.630;2023-03-05T15:43:09;4.27;73.72
74968;SHT30;63523;51.880;12.630;2023-03-05T15:45:35;4.20;73.58
74968;SHT30;63523;51.880;12.630;2023-03-05T15:48:00;4.27;73.38
74968;SHT30;63523;51.880;12.630;2023-03-05T15:50:26;4.32;73.13
74968;SHT30;63523;51.880;12.630;2023-03-05T15:52:51;4.15;74.25
74968;SHT30;63523;51.880;12.630;2023-03-05T15:55:17;4.20;73.62
74968;SHT30;63523;51.880;12.630;2023-03-05T15:57:46;4.35;72.49
74968;SHT30;63523;51.880;12.630;2023-03-05T16:00:14;4.31;72.72
74968;SHT30;63523;51.880;12.630;2023-03-05T16:02:41;4.28;72.21
74968;SHT30;63523;51.880;12.630;2023-03-05T16:05:07;4.25;73.02
74968;SHT30;63523;51.880;12.630;2023-03-05T16:07:36;4.27;72.50
74968;SHT30;63523;51.880;12.630;2023-03-05T16:10:02;4.21;73.30
74968;SHT30;63523;51.880;12.630;2023-03-05T16:12:35;4.18;73.39
74968;SHT30;63523;51.880;12.630;2023-03-05T16:15:09;4.25;72.45
74968;SHT30;63523;51.880;12.630;2023-03-05T16:17:36;4.28;72.57
74968;SHT30;63523;51.880;12.630;2023-03-05T16:20:03;4.24;72.84
74968;SHT30;63523;51.880;12.630;2023-03-05T16:22:29;4.17;73.34
74968;SHT30;63523;51.880;12.630;2023-03-05T16:24:54;4.22;72.34
74968;SHT30;63523;51.880;12.630;2023-03-05T16:27:21;4.31;72.10
74968;SHT30;63523;51.880;12.630;2023-03-05T16:29:46;4.24;72.76
74968;SHT30;63523;51.880;12.630;2023-03-05T16:32:12;4.10;73.86
74968;SHT30;63523;51.880;12.630;2023-03-05T16:34:37;4.07;74.71
74968;SHT30;63523;51.880;12.630;2023-03-05T16:37:03;4.03;74.86
74968;SHT30;63523;51.880;12.630;2023-03-05T16:39:31;3.97;74.77
74968;SHT30;63523;51.880;12.630;2023-03-05T16:41:57;3.83;75.92
74968;SHT30;63523;51.880;12.630;2023-03-05T16:44:22;3.76;76.12
74968;SHT30;63523;51.880;12.630;2023-03-05T16:46:48;3.75;76.07
74968;SHT30;63523;51.880;12.630;2023-03-05T16:49:20;3.63;76.13
74968;SHT30;63523;51.880;12.630;2023-03-05T16:51:46;3.56;76.40
74968;SHT30;63523;51.880;12.630;2023-03-05T16:54:12;3.46;77.18
74968;SHT30;63523;51.880;12.630;2023-03-05T16:56:38;3.36;77.68
74968;SHT30;63523;51.880;12.630;2023-03-05T16:59:03;3.27;78.50
74968;SHT30;63523;51.880;12.630;2023-03-05T17:01:29;3.18;78.90
74968;SHT30;63523;51.880;12.630;2023-03-05T17:03:58;3.08;79.35
74968;SHT30;63523;51.880;12.630;2023-03-05T17:06:27;3.03;79.97
74968;SHT30;63523;51.880;12.630;2023-03-05T17:08:54;3.07;79.56